Time;durP1;ratioP1;P1;durP2;ratioP2;P2;SDS_P1;SDS_P2;PMS_P1;PMS_P2;Temp;Humidity;BMP_temperature;BMP_pressure;BME280_temperature;BME280_humidity;BME280_pressure;Samples;Min_cycle;Max_cycle;Signal;HPM_P1;HPM_P2
2022/10/04 00:01:47;;;;;;;0.32;0.32;;;13.20;99.90;;;;;;4381802;32;20100;-80
2022/10/04 00:04:33;;;;;;;24.33;0.70;;;13.20;99.90;;;;;;4386433;32;20098;-78
2022/10/04 00:07:03;;;;;;;0.77;0.77;;;13.20;99.90;;;;;;4374966;32;20303;-80
2022/10/04 00:09:39;;;;;;;3.42;1.67;;;13.20;99.90;;;;;;4391766;32;20121;-78
2022/10/04 00:12:06;;;;;;;0.80;0.80;;;13.20;99.90;;;;;;4388927;32;20141;-78
2022/10/04 00:14:36;;;;;;;0.30;0.30;;;13.20;99.90;;;;;;4390409;32;20065;-81
2022/10/04 00:17:10;;;;;;;0.35;0.35;;;13.20;99.90;;;;;;4391442;32;20573;-80
2022/10/04 00:19:42;;;;;;;0.32;0.32;;;13.20;99.90;;;;;;4391608;32;20090;-77
2022/10/04 00:22:11;;;;;;;3.67;0.47;;;13.30;99.90;;;;;;4392858;32;20628;-80
2022/10/04 00:25:00;;;;;;;1.08;1.02;;;13.30;99.90;;;;;;4395864;32;20073;-80
2022/10/04 00:27:27;;;;;;;0.70;0.57;;;13.30;99.90;;;;;;4385389;32;20093;-80
2022/10/04 00:30:06;;;;;;;0.68;0.62;;;13.30;99.90;;;;;;4393313;32;20102;-80
2022/10/04 00:32:42;;;;;;;0.40;0.40;;;13.30;99.90;;;;;;4382093;32;20161;-77
2022/10/04 00:35:29;;;;;;;0.50;0.50;;;13.30;99.90;;;;;;4383885;32;20070;-77
2022/10/04 00:37:59;;;;;;;8.88;1.65;;;13.30;99.90;;;;;;4382245;32;20081;-81
2022/10/04 00:40:28;;;;;;;0.88;0.88;;;13.30;99.90;;;;;;4390536;32;20105;-81
2022/10/04 00:43:00;;;;;;;0.52;0.50;;;13.20;99.90;;;;;;4394598;32;20834;-79
2022/10/04 00:45:40;;;;;;;3.65;1.58;;;13.20;99.90;;;;;;4398054;32;20265;-80
2022/10/04 00:48:10;;;;;;;0.70;0.70;;;13.20;99.90;;;;;;4398748;32;20094;-80
2022/10/04 00:50:44;;;;;;;0.60;0.60;;;13.20;99.90;;;;;;4398429;32;20093;-80
2022/10/04 00:53:21;;;;;;;0.40;0.40;;;13.30;99.90;;;;;;4397192;32;20069;-81
2022/10/04 00:55:53;;;;;;;4.30;0.85;;;13.20;99.90;;;;;;4398628;32;20570;-79
2022/10/04 00:58:25;;;;;;;0.40;0.40;;;13.30;99.90;;;;;;4397792;32;20105;-78
2022/10/04 01:00:54;;;;;;;0.70;0.70;;;13.30;99.90;;;;;;4400664;32;20097;-79
2022/10/04 01:03:29;;;;;;;0.40;0.40;;;13.30;99.90;;;;;;4393990;32;20097;-78
2022/10/04 01:05:59;;;;;;;2.00;0.77;;;13.30;99.90;;;;;;4390941;32;20466;-78
2022/10/04 01:08:32;;;;;;;0.60;0.60;;;13.20;99.90;;;;;;4397339;32;20497;-80
2022/10/04 01:11:03;;;;;;;0.40;0.40;;;13.20;99.90;;;;;;4398729;32;20075;-80
2022/10/04 01:13:52;;;;;;;0.45;0.45;;;13.10;99.90;;;;;;4395047;32;20069;-80
2022/10/04 01:16:21;;;;;;;8.65;0.75;;;13.20;99.90;;;;;;4391511;32;20121;-78
2022/10/04 01:18:47;;;;;;;4.90;1.60;;;13.10;99.90;;;;;;4397941;32;20102;-80
2022/10/04 01:21:27;;;;;;;0.70;0.70;;;13.10;99.90;;;;;;4394109;32;20062;-80
2022/10/04 01:23:59;;;;;;;0.65;0.52;;;13.10;99.90;;;;;;4398424;32;20074;-78
2022/10/04 01:26:28;;;;;;;2.62;0.85;;;13.10;99.90;;;;;;4396311;32;20085;-80
2022/10/04 01:28:59;;;;;;;0.40;0.40;;;13.10;99.90;;;;;;4401691;32;20058;-80
2022/10/04 01:31:26;;;;;;;0.43;0.43;;;13.10;99.90;;;;;;4401814;32;20069;-78
2022/10/04 01:33:54;;;;;;;0.93;0.73;;;13.00;99.90;;;;;;4393038;32;20565;-78
2022/10/04 01:36:19;;;;;;;0.37;0.37;;;13.00;99.90;;;;;;4387777;32;20078;-78
2022/10/04 01:38:46;;;;;;;1.58;0.60;;;13.00;99.90;;;;;;4395129;32;20592;-80
2022/10/04 01:41:13;;;;;;;0.30;0.30;;;13.00;99.90;;;;;;4395783;32;20174;-78
2022/10/04 01:43:42;;;;;;;2.45;0.68;;;12.90;99.90;;;;;;4398139;32;20139;-79
2022/10/04 01:46:21;;;;;;;0.43;0.43;;;13.00;99.90;;;;;;4402312;32;20083;-80
2022/10/04 01:48:52;;;;;;;0.60;0.60;;;13.00;99.90;;;;;;4386936;32;20090;-78
2022/10/04 01:51:27;;;;;;;;;;;13.00;99.90;;;;;;4394717;32;20074;-79
2022/10/04 01:53:58;;;;;;;0.73;0.73;;;13.00;99.90;;;;;;4395073;32;19954;-80
2022/10/04 01:56:30;;;;;;;0.75;0.70;;;13.00;99.90;;;;;;4391713;32;20062;-77
2022/10/04 01:59:01;;;;;;;0.85;0.85;;;13.00;99.90;;;;;;4395060;32;20151;-80
2022/10/04 02:01:34;;;;;;;0.50;0.50;;;12.90;99.90;;;;;;4391407;32;20138;-80
2022/10/04 02:04:19;;;;;;;0.62;0.62;;;12.90;99.90;;;;;;4385442;32;20090;-79
2022/10/04 02:06:53;;;;;;;0.75;0.75;;;12.80;99.90;;;;;;4378322;32;20178;-79
2022/10/04 02:09:28;;;;;;;0.40;0.40;;;12.90;99.90;;;;;;4397608;32;20095;-79
2022/10/04 02:11:54;;;;;;;0.40;0.40;;;12.80;99.90;;;;;;4396216;32;20094;-80
2022/10/04 02:14:24;;;;;;;3.22;0.90;;;12.80;99.90;;;;;;4395956;32;20141;-80
2022/10/04 02:16:52;;;;;;;0.33;0.33;;;12.80;99.90;;;;;;4396419;32;20078;-77
2022/10/04 02:19:20;;;;;;;0.82;0.82;;;12.80;99.90;;;;;;4395356;32;20159;-79
2022/10/04 02:21:47;;;;;;;1.15;1.05;;;12.80;99.90;;;;;;4396465;32;20078;-77
2022/10/04 02:24:15;;;;;;;0.50;0.50;;;12.80;99.90;;;;;;4394049;32;20498;-79
2022/10/04 02:26:40;;;;;;;0.88;0.88;;;12.70;99.90;;;;;;4396459;32;20092;-80
2022/10/04 02:29:09;;;;;;;3.95;0.95;;;12.80;99.90;;;;;;4396228;32;20069;-78
2022/10/04 02:33:09;;;;;;;0.65;0.65;;;12.70;99.90;;;;;;4403600;32;20121;-78
2022/10/04 02:34:23;;;;;;;8.02;0.73;;;12.70;99.90;;;;;;4381079;32;20070;-76
2022/10/04 02:36:50;;;;;;;0.85;0.75;;;12.70;99.90;;;;;;4392248;32;20078;-79
2022/10/04 02:39:25;;;;;;;4.37;0.70;;;12.70;99.90;;;;;;4393199;32;20078;-81
2022/10/04 02:41:57;;;;;;;0.70;0.70;;;12.70;99.90;;;;;;4397797;32;20070;-80
2022/10/04 02:44:40;;;;;;;0.40;0.40;;;12.60;99.90;;;;;;4397077;32;20062;-78
2022/10/04 02:47:14;;;;;;;0.30;0.30;;;12.60;99.90;;;;;;4393652;32;20087;-79
2022/10/04 02:49:52;;;;;;;1.05;0.50;;;12.60;99.90;;;;;;4392723;32;20093;-78
2022/10/04 02:52:41;;;;;;;16.42;0.55;;;12.60;99.90;;;;;;4400172;32;20066;-79
2022/10/04 02:55:28;;;;;;;0.37;0.37;;;12.60;99.90;;;;;;4399173;32;20102;-78
2022/10/04 02:57:57;;;;;;;2.00;1.20;;;12.60;99.90;;;;;;4395733;32;20089;-80
2022/10/04 03:00:27;;;;;;;1.20;0.73;;;12.50;99.90;;;;;;4395683;32;20125;-78
2022/10/04 03:03:16;;;;;;;0.52;0.52;;;12.50;99.90;;;;;;4391271;32;20336;-78
2022/10/04 03:05:47;;;;;;;7.87;0.88;;;12.50;99.90;;;;;;4381155;32;20123;-79
2022/10/04 03:08:13;;;;;;;0.40;0.40;;;12.40;99.90;;;;;;4397483;32;20090;-78
2022/10/04 03:10:41;;;;;;;0.98;0.95;;;12.40;99.90;;;;;;4394093;32;20090;-79
2022/10/04 03:13:08;;;;;;;15.02;0.60;;;12.30;99.90;;;;;;4395257;32;20566;-79
2022/10/04 03:15:34;;;;;;;0.40;0.40;;;12.20;99.90;;;;;;4393254;32;20525;-79
2022/10/04 03:18:01;;;;;;;0.40;0.40;;;12.20;99.90;;;;;;4393442;32;20098;-80
2022/10/04 03:20:26;;;;;;;0.40;0.40;;;12.20;99.90;;;;;;4393882;32;20150;-80
2022/10/04 03:22:55;;;;;;;0.35;0.35;;;12.20;99.90;;;;;;4396162;32;20110;-80
2022/10/04 03:25:27;;;;;;;1.20;0.77;;;12.20;99.90;;;;;;4393592;32;20117;-78
2022/10/04 03:27:55;;;;;;;0.62;0.62;;;12.20;99.90;;;;;;4400457;32;20163;-79
2022/10/04 03:30:21;;;;;;;3.72;0.65;;;12.20;99.90;;;;;;4394055;32;20212;-78
2022/10/04 03:32:48;;;;;;;21.92;1.05;;;12.20;99.90;;;;;;4393581;32;20122;-78
2022/10/04 03:35:27;;;;;;;0.47;0.40;;;12.10;99.90;;;;;;4392848;32;20073;-80
2022/10/04 03:38:01;;;;;;;1.87;1.48;;;12.10;99.90;;;;;;4395328;32;20079;-80
2022/10/04 03:40:30;;;;;;;28.35;0.98;;;12.10;99.90;;;;;;4400994;32;20082;-79
2022/10/04 03:43:00;;;;;;;0.50;0.50;;;12.10;99.90;;;;;;4404352;32;20073;-80
2022/10/04 03:45:28;;;;;;;0.60;0.60;;;12.10;99.90;;;;;;4397343;32;20078;-80
2022/10/04 03:48:00;;;;;;;3.40;1.05;;;12.00;99.90;;;;;;4403029;32;20061;-78
2022/10/04 03:50:32;;;;;;;0.40;0.40;;;12.00;99.90;;;;;;4398741;32;20087;-77
2022/10/04 03:53:06;;;;;;;0.30;0.30;;;12.00;99.90;;;;;;4398912;32;20106;-79
2022/10/04 03:55:37;;;;;;;0.60;0.60;;;12.00;99.90;;;;;;4391995;32;20085;-79
2022/10/04 03:58:04;;;;;;;;;;;12.00;99.90;;;;;;4399544;32;20065;-80
2022/10/04 04:00:32;;;;;;;0.88;0.82;;;12.10;99.90;;;;;;4397081;32;20033;-79
2022/10/04 04:03:02;;;;;;;0.28;0.28;;;12.10;99.90;;;;;;4402077;32;20095;-77
2022/10/04 04:05:34;;;;;;;13.73;0.95;;;12.20;99.90;;;;;;4394850;32;20421;-79
2022/10/04 04:08:27;;;;;;;0.30;0.30;;;12.30;99.90;;;;;;4400892;32;20141;-78
2022/10/04 04:10:56;;;;;;;0.40;0.40;;;12.30;99.90;;;;;;4394353;32;20071;-79
2022/10/04 04:13:29;;;;;;;0.30;0.30;;;12.30;99.90;;;;;;4402026;32;20124;-78
2022/10/04 04:15:59;;;;;;;0.30;0.30;;;12.40;99.90;;;;;;4397384;32;20086;-79
2022/10/04 04:18:29;;;;;;;0.30;0.30;;;12.40;99.90;;;;;;4400402;32;20097;-79
2022/10/04 04:20:58;;;;;;;0.40;0.40;;;12.40;99.90;;;;;;4395888;32;20133;-80
2022/10/04 04:23:31;;;;;;;5.78;0.90;;;12.40;99.90;;;;;;4385316;32;20114;-76
2022/10/04 04:26:19;;;;;;;0.80;0.80;;;12.40;99.90;;;;;;4385002;32;20130;-78
2022/10/04 04:28:51;;;;;;;2.08;0.95;;;12.50;99.90;;;;;;4368937;32;20097;-79
2022/10/04 04:31:23;;;;;;;0.75;0.73;;;12.40;99.90;;;;;;4379193;32;20074;-77
2022/10/04 04:33:58;;;;;;;0.30;0.30;;;12.40;99.90;;;;;;4378477;32;20111;-77
2022/10/04 04:36:24;;;;;;;0.32;0.32;;;12.40;99.90;;;;;;4378746;32;20083;-79
2022/10/04 04:39:53;;;;;;;0.30;0.30;;;12.40;99.90;;;;;;4399471;32;20063;-79
2022/10/04 04:41:36;;;;;;;0.45;0.45;;;12.50;99.90;;;;;;4396574;32;20073;-79
2022/10/04 04:44:12;;;;;;;17.45;1.17;;;12.50;99.90;;;;;;4394581;32;20098;-79
2022/10/04 04:46:38;;;;;;;0.55;0.55;;;12.50;99.90;;;;;;4397393;32;20086;-79
2022/10/04 04:49:04;;;;;;;0.37;0.37;;;12.40;99.90;;;;;;4397952;32;20115;-78
2022/10/04 04:51:32;;;;;;;0.35;0.35;;;12.40;99.90;;;;;;4398645;32;20521;-78
2022/10/04 04:54:02;;;;;;;0.30;0.30;;;12.40;99.90;;;;;;4379551;32;20121;-79
2022/10/04 04:56:29;;;;;;;0.75;0.75;;;12.40;99.90;;;;;;4382581;32;20420;-76
2022/10/04 04:59:00;;;;;;;0.30;0.30;;;12.40;99.90;;;;;;4397809;32;20082;-81
2022/10/04 05:01:31;;;;;;;0.40;0.40;;;12.30;99.90;;;;;;4391591;32;20086;-78
2022/10/04 05:04:11;;;;;;;0.68;0.60;;;12.30;99.90;;;;;;4390720;32;20616;-75
2022/10/04 05:06:41;;;;;;;0.70;0.70;;;12.30;99.90;;;;;;4386406;32;20094;-76
2022/10/04 05:09:27;;;;;;;1.75;1.25;;;12.30;99.90;;;;;;4379387;32;20126;-76
2022/10/04 05:11:58;;;;;;;0.30;0.30;;;12.30;99.90;;;;;;4381534;32;20397;-76
2022/10/04 05:14:23;;;;;;;2.65;1.40;;;12.40;99.90;;;;;;4378655;32;20637;-79
2022/10/04 05:16:53;;;;;;;0.35;0.35;;;12.30;99.90;;;;;;4382272;32;20242;-76
2022/10/04 05:19:30;;;;;;;1.55;0.60;;;12.40;99.90;;;;;;4363591;32;20232;-77
2022/10/04 05:21:59;;;;;;;9.63;1.12;;;12.40;99.90;;;;;;4374119;32;20185;-78
2022/10/04 05:24:30;;;;;;;1.23;0.45;;;12.40;99.90;;;;;;4354356;32;20110;-75
2022/10/04 05:27:01;;;;;;;0.40;0.40;;;12.40;99.90;;;;;;4360714;32;20788;-76
2022/10/04 05:29:34;;;;;;;1.75;0.77;;;12.50;99.90;;;;;;4366993;32;20616;-77
2022/10/04 05:32:06;;;;;;;1.98;1.27;;;12.50;99.90;;;;;;4349118;32;20101;-76
2022/10/04 05:34:38;;;;;;;0.50;0.50;;;12.50;99.90;;;;;;4335697;32;20397;-76
2022/10/04 05:37:21;;;;;;;0.40;0.40;;;12.50;99.90;;;;;;4359036;32;20690;-76
2022/10/04 05:40:03;;;;;;;2.42;0.88;;;12.50;99.90;;;;;;4357654;32;20110;-76
2022/10/04 05:42:37;;;;;;;0.50;0.50;;;12.50;99.90;;;;;;4344417;32;20240;-76
2022/10/04 05:45:13;;;;;;;0.40;0.40;;;12.50;99.90;;;;;;4369377;32;20194;-75
2022/10/04 05:47:41;;;;;;;0.30;0.30;;;12.50;99.90;;;;;;4375983;32;20074;-78
2022/10/04 05:50:16;;;;;;;0.88;0.60;;;12.50;99.90;;;;;;4360277;32;20145;-78
2022/10/04 05:52:42;;;;;;;2.30;0.80;;;12.50;99.90;;;;;;4358273;32;21125;-78
2022/10/04 05:55:32;;;;;;;0.50;0.50;;;12.60;99.90;;;;;;4355481;32;20111;-78
2022/10/04 05:58:22;;;;;;;0.50;0.50;;;12.70;99.90;;;;;;4340307;32;20163;-77
2022/10/04 06:01:00;;;;;;;0.60;0.55;;;12.60;99.90;;;;;;4319653;32;20162;-76
2022/10/04 06:03:53;;;;;;;6.03;2.05;;;12.60;99.90;;;;;;4334722;32;20248;-76
2022/10/04 06:06:25;;;;;;;0.50;0.50;;;12.60;99.90;;;;;;4335945;32;21176;-76
2022/10/04 06:09:16;;;;;;;0.85;0.85;;;12.70;99.90;;;;;;4348346;32;20148;-77
2022/10/04 06:12:05;;;;;;;0.32;0.32;;;12.70;99.90;;;;;;4351175;32;20464;-78
2022/10/04 06:15:01;;;;;;;0.52;0.52;;;12.80;99.90;;;;;;4348014;32;20308;-76
2022/10/04 06:17:42;;;;;;;15.93;2.25;;;12.80;99.90;;;;;;4342270;32;20242;-74
2022/10/04 06:20:18;;;;;;;1.25;0.62;;;12.80;99.90;;;;;;4340423;32;22070;-77
2022/10/04 06:22:46;;;;;;;0.40;0.40;;;12.80;99.90;;;;;;4338107;32;20109;-76
2022/10/04 06:25:18;;;;;;;0.40;0.40;;;12.90;99.90;;;;;;4345853;32;20101;-75
2022/10/04 06:27:56;;;;;;;4.68;0.95;;;12.90;99.90;;;;;;4349832;32;20166;-76
2022/10/04 06:30:41;;;;;;;1.23;1.12;;;13.00;99.90;;;;;;4334927;32;20106;-78
2022/10/04 06:33:19;;;;;;;0.43;0.43;;;13.10;99.90;;;;;;4334812;32;20456;-77
2022/10/04 06:36:07;;;;;;;0.40;0.40;;;13.10;99.90;;;;;;4336513;32;20118;-78
2022/10/04 06:39:12;;;;;;;0.22;0.22;;;13.10;99.90;;;;;;4334930;32;20363;-77
2022/10/04 06:42:03;;;;;;;3.50;0.55;;;13.00;99.90;;;;;;4336466;32;21664;-77
2022/10/04 06:44:48;;;;;;;;;;;12.80;99.90;;;;;;4343098;32;20324;-77
2022/10/04 06:47:36;;;;;;;1.98;1.08;;;12.80;99.90;;;;;;4355945;32;19974;-77
2022/10/04 06:50:18;;;;;;;0.40;0.40;;;12.80;99.90;;;;;;4335486;32;20300;-77
2022/10/04 06:53:19;;;;;;;1.05;0.85;;;12.80;99.90;;;;;;4345684;32;20494;-79
2022/10/04 06:56:01;;;;;;;23.77;0.80;;;12.80;99.90;;;;;;4341343;32;21074;-78
2022/10/04 06:58:39;;;;;;;1.25;1.02;;;12.80;99.90;;;;;;4345967;32;21539;-78
2022/10/04 07:01:31;;;;;;;0.50;0.50;;;12.90;99.90;;;;;;4339527;32;20178;-78
2022/10/04 07:04:23;;;;;;;0.47;0.47;;;12.90;99.90;;;;;;4340540;32;20288;-77
2022/10/04 07:07:26;;;;;;;0.52;0.52;;;12.80;99.90;;;;;;4316751;32;20101;-77
2022/10/04 07:09:59;;;;;;;0.30;0.30;;;12.90;99.90;;;;;;4357472;32;20101;-78
2022/10/04 07:12:25;;;;;;;0.30;0.30;;;13.00;99.90;;;;;;4350690;32;20362;-77
2022/10/04 07:14:53;;;;;;;1.45;0.82;;;13.00;99.90;;;;;;4334482;32;20103;-77
2022/10/04 07:17:40;;;;;;;0.43;0.37;;;13.10;99.90;;;;;;4346488;32;20595;-76
2022/10/04 07:20:19;;;;;;;1.27;0.70;;;13.10;99.90;;;;;;4333697;32;20081;-76
2022/10/04 07:22:51;;;;;;;14.50;1.12;;;13.10;99.90;;;;;;4348750;32;20082;-76
2022/10/04 07:25:26;;;;;;;13.85;0.80;;;13.10;99.90;;;;;;4345436;32;20082;-77
2022/10/04 07:29:33;;;;;;;0.70;0.70;;;13.10;99.90;;;;;;4354107;32;20258;-78
2022/10/04 07:30:56;;;;;;;0.50;0.50;;;13.10;99.90;;;;;;4328073;32;20151;-77
2022/10/04 07:33:26;;;;;;;1.37;1.27;;;13.10;99.90;;;;;;4324691;32;20363;-76
2022/10/04 07:36:02;;;;;;;0.70;0.70;;;13.10;99.90;;;;;;4328791;32;20079;-77
2022/10/04 07:38:33;;;;;;;12.13;0.55;;;13.20;99.90;;;;;;4338706;32;20310;-76
2022/10/04 07:41:25;;;;;;;0.40;0.40;;;13.10;99.90;;;;;;4355868;32;20086;-76
2022/10/04 07:43:55;;;;;;;1.25;0.82;;;13.10;99.90;;;;;;4353715;32;20153;-76
2022/10/04 07:46:47;;;;;;;0.60;0.60;;;13.10;99.90;;;;;;4363025;32;20102;-77
2022/10/04 07:49:15;;;;;;;0.60;0.60;;;13.20;99.90;;;;;;4340962;32;20191;-76
2022/10/04 07:52:02;;;;;;;0.57;0.50;;;13.20;99.90;;;;;;4333091;32;21125;-75
2022/10/04 07:54:39;;;;;;;0.88;0.88;;;13.30;99.90;;;;;;4337809;32;20853;-76
2022/10/04 07:57:16;;;;;;;0.52;0.52;;;13.20;99.90;;;;;;4341087;32;20129;-76
2022/10/04 08:00:12;;;;;;;0.57;0.57;;;13.30;99.90;;;;;;4345238;32;21715;-76
2022/10/04 08:02:40;;;;;;;0.80;0.80;;;13.30;99.90;;;;;;4335832;32;20102;-75
2022/10/04 08:05:28;;;;;;;0.70;0.70;;;13.30;99.90;;;;;;4339441;32;21058;-74
2022/10/04 08:08:14;;;;;;;0.90;0.62;;;13.30;99.90;;;;;;4348038;32;20128;-76
2022/10/04 08:10:55;;;;;;;0.50;0.50;;;13.30;99.90;;;;;;4346054;32;20418;-76
2022/10/04 08:13:26;;;;;;;1.12;0.70;;;13.40;99.90;;;;;;4357054;32;20841;-75
2022/10/04 08:15:52;;;;;;;0.40;0.40;;;13.40;99.90;;;;;;4347534;32;21926;-75
2022/10/04 08:18:58;;;;;;;2.00;0.82;;;13.40;99.90;;;;;;4347102;32;21083;-77
2022/10/04 08:21:32;;;;;;;17.75;0.80;;;13.50;99.90;;;;;;4320539;32;20082;-76
2022/10/04 08:24:06;;;;;;;0.88;0.85;;;13.60;99.90;;;;;;4353476;32;20461;-76
2022/10/04 08:27:07;;;;;;;0.40;0.40;;;13.70;99.90;;;;;;4355344;32;20073;-76
2022/10/04 08:29:51;;;;;;;0.47;0.47;;;13.80;99.90;;;;;;4330513;32;20113;-76
2022/10/04 08:32:42;;;;;;;0.50;0.50;;;14.00;99.90;;;;;;4350694;32;106737;-74
2022/10/04 08:35:19;;;;;;;0.30;0.30;;;14.00;99.90;;;;;;4332673;32;20911;-75
2022/10/04 08:38:06;;;;;;;0.65;0.30;;;14.10;99.90;;;;;;4342035;32;20189;-74
2022/10/04 08:41:02;;;;;;;0.60;0.60;;;14.20;99.90;;;;;;4328968;32;20169;-76
2022/10/04 08:43:49;;;;;;;0.62;0.62;;;14.30;99.90;;;;;;4333416;32;20118;-76
2022/10/04 08:46:54;;;;;;;14.60;0.62;;;14.30;99.90;;;;;;4339404;32;20102;-75
2022/10/04 08:49:50;;;;;;;0.50;0.50;;;14.50;99.90;;;;;;4328725;32;20105;-75
2022/10/04 08:52:28;;;;;;;0.50;0.50;;;14.50;99.90;;;;;;4349756;32;20251;-76
2022/10/04 08:55:23;;;;;;;0.45;0.45;;;14.60;99.90;;;;;;4347562;32;20703;-75
2022/10/04 08:58:11;;;;;;;0.50;0.50;;;14.50;99.90;;;;;;4326805;32;20118;-75
2022/10/04 09:00:59;;;;;;;0.50;0.50;;;14.50;99.90;;;;;;4325785;32;20331;-75
2022/10/04 09:04:00;;;;;;;0.50;0.50;;;14.50;99.90;;;;;;4340406;32;20966;-75
2022/10/04 09:06:35;;;;;;;;;;;14.60;99.90;;;;;;4328758;32;20238;-76
2022/10/04 09:09:03;;;;;;;6.60;0.85;;;14.60;99.90;;;;;;4351039;32;19965;-77
2022/10/04 09:11:57;;;;;;;0.40;0.40;;;14.60;99.90;;;;;;4349358;32;20215;-75
2022/10/04 09:14:44;;;;;;;0.77;0.50;;;14.60;99.90;;;;;;4339399;32;20106;-75
2022/10/04 09:17:47;;;;;;;0.73;0.73;;;14.60;99.90;;;;;;4334151;32;21495;-75
2022/10/04 09:20:33;;;;;;;0.40;0.40;;;14.70;99.90;;;;;;4327258;32;20244;-76
2022/10/04 09:23:20;;;;;;;0.40;0.40;;;14.70;99.90;;;;;;4275148;32;21458;-75
2022/10/04 09:26:00;;;;;;;0.30;0.30;;;14.60;99.90;;;;;;4321521;32;20568;-75
2022/10/04 09:28:55;;;;;;;0.77;0.45;;;14.60;99.90;;;;;;4317998;32;20232;-76
2022/10/04 09:31:59;;;;;;;1.27;1.05;;;14.60;99.90;;;;;;4330219;32;20998;-75
2022/10/04 09:34:37;;;;;;;0.50;0.50;;;14.70;99.90;;;;;;4325222;32;20293;-75
2022/10/04 09:37:43;;;;;;;1.27;1.00;;;14.80;99.90;;;;;;4331134;32;20165;-76
2022/10/04 09:40:28;;;;;;;1.45;1.02;;;14.80;99.90;;;;;;4324210;32;20114;-76
2022/10/04 09:43:16;;;;;;;0.57;0.57;;;14.80;99.90;;;;;;4346872;32;20310;-76
2022/10/04 09:46:22;;;;;;;0.60;0.60;;;14.80;99.90;;;;;;4327077;32;20923;-76
2022/10/04 09:49:08;;;;;;;0.40;0.40;;;14.90;99.90;;;;;;4298515;32;20098;-76
2022/10/04 09:52:03;;;;;;;0.52;0.52;;;15.00;99.90;;;;;;4336133;32;20928;-77
2022/10/04 09:54:32;;;;;;;0.50;0.50;;;15.10;99.90;;;;;;4333957;32;20078;-76
2022/10/04 09:57:13;;;;;;;0.60;0.60;;;15.10;99.90;;;;;;4347301;32;20107;-79
2022/10/04 10:00:21;;;;;;;0.60;0.60;;;15.20;99.90;;;;;;4337679;32;20124;-78
2022/10/04 10:03:16;;;;;;;0.50;0.50;;;15.20;99.90;;;;;;4336189;32;20101;-77
2022/10/04 10:05:55;;;;;;;0.50;0.47;;;15.30;99.90;;;;;;4344928;32;21118;-76
2022/10/04 10:08:43;;;;;;;4.97;0.55;;;15.40;99.90;;;;;;4339052;32;20106;-77
2022/10/04 10:14:41;;;;;;;0.50;0.50;;;15.60;99.90;;;;;;4339834;32;20215;-76
2022/10/04 10:17:19;;;;;;;6.72;1.30;;;15.50;99.90;;;;;;4312199;32;20261;-76
2022/10/04 10:20:18;;;;;;;0.47;0.45;;;15.50;99.90;;;;;;4332623;32;20221;-76
2022/10/04 10:23:22;;;;;;;0.40;0.40;;;15.70;99.90;;;;;;4321748;32;20787;-76
2022/10/04 10:26:28;;;;;;;0.60;0.60;;;15.60;99.90;;;;;;4350381;32;20433;-76
2022/10/04 10:29:24;;;;;;;2.85;0.80;;;15.70;99.90;;;;;;4338223;32;20669;-76
2022/10/04 10:32:27;;;;;;;0.40;0.40;;;16.00;99.90;;;;;;4334382;32;20423;-77
2022/10/04 10:35:19;;;;;;;0.40;0.40;;;16.10;99.90;;;;;;4343817;32;20374;-77
2022/10/04 10:37:56;;;;;;;0.50;0.50;;;16.00;99.90;;;;;;4352686;32;20082;-77
2022/10/04 10:40:47;;;;;;;1.08;0.62;;;16.10;99.90;;;;;;4353175;32;20187;-77
2022/10/04 10:43:42;;;;;;;0.40;0.40;;;16.10;99.90;;;;;;4371962;32;20616;-78
2022/10/04 10:46:25;;;;;;;0.60;0.60;;;16.10;99.90;;;;;;4340474;32;20130;-77
2022/10/04 10:49:12;;;;;;;6.45;0.62;;;16.10;99.90;;;;;;4348356;32;20620;-76
2022/10/04 10:52:04;;;;;;;0.47;0.47;;;16.00;99.90;;;;;;4322079;32;20196;-77
2022/10/04 10:54:58;;;;;;;0.40;0.40;;;16.10;99.90;;;;;;4322569;32;20109;-77
2022/10/04 10:58:04;;;;;;;2.00;1.10;;;16.20;99.90;;;;;;4336493;32;21001;-77
2022/10/04 11:01:02;;;;;;;0.37;0.37;;;16.40;99.90;;;;;;4325080;32;20237;-76
2022/10/04 11:04:11;;;;;;;0.80;0.80;;;16.40;99.90;;;;;;4357643;32;20240;-79
2022/10/04 11:07:09;;;;;;;0.88;0.88;;;16.50;99.90;;;;;;4358370;32;20122;-79
2022/10/04 11:10:07;;;;;;;0.50;0.50;;;16.50;99.90;;;;;;4339414;32;21111;-77
2022/10/04 11:12:55;;;;;;;0.40;0.40;;;16.70;99.90;;;;;;4356464;32;20114;-77
2022/10/04 11:16:01;;;;;;;1.45;0.93;;;16.70;99.90;;;;;;4366003;32;20118;-77
2022/10/04 11:18:48;;;;;;;0.62;0.62;;;16.60;99.90;;;;;;4333722;32;20162;-78
2022/10/04 11:21:33;;;;;;;0.40;0.40;;;16.50;99.90;;;;;;4349097;32;20122;-79
2022/10/04 11:24:33;;;;;;;0.60;0.60;;;16.50;99.90;;;;;;4344497;32;20201;-76
2022/10/04 11:27:36;;;;;;;1.08;1.08;;;16.50;99.90;;;;;;4320648;32;20122;-76
2022/10/04 11:30:22;;;;;;;0.40;0.40;;;16.50;99.90;;;;;;4341331;32;20374;-77
2022/10/04 11:32:54;;;;;;;0.80;0.70;;;16.80;99.90;;;;;;4358950;32;20179;-75
2022/10/04 11:35:54;;;;;;;0.77;0.77;;;16.90;99.90;;;;;;4350751;32;20082;-76
2022/10/04 11:38:26;;;;;;;0.30;0.30;;;17.10;99.90;;;;;;4357210;32;20731;-76
2022/10/04 11:41:00;;;;;;;0.88;0.88;;;17.60;99.90;;;;;;4372196;32;20094;-76
2022/10/04 11:44:07;;;;;;;0.82;0.82;;;18.00;99.90;;;;;;4386382;32;20129;-78
2022/10/04 11:46:54;;;;;;;0.40;0.40;;;18.40;99.90;;;;;;4369785;32;20078;-77
2022/10/04 11:49:49;;;;;;;0.70;0.70;;;18.80;99.90;;;;;;4376931;32;20078;-78
2022/10/04 11:52:35;;;;;;;0.30;0.30;;;19.50;99.90;;;;;;4376587;32;20122;-78
2022/10/04 11:55:38;;;;;;;0.40;0.40;;;19.50;99.90;;;;;;4374328;32;20117;-78
2022/10/04 11:58:23;;;;;;;0.20;0.20;;;19.30;99.90;;;;;;4380925;32;20151;-78
2022/10/04 12:01:21;;;;;;;0.40;0.40;;;19.30;99.90;;;;;;4378393;32;20170;-79
2022/10/04 12:04:26;;;;;;;1.10;0.75;;;18.90;99.90;;;;;;4371075;32;20157;-78
2022/10/04 12:07:21;;;;;;;0.50;0.50;;;18.60;99.90;;;;;;4364842;32;20109;-78
2022/10/04 12:10:20;;;;;;;0.52;0.52;;;18.80;99.90;;;;;;4377994;32;20237;-77
2022/10/04 12:13:07;;;;;;;0.40;0.40;;;18.60;99.90;;;;;;4387008;32;20217;-78
2022/10/04 12:15:41;;;;;;;0.47;0.47;;;18.40;99.90;;;;;;4384836;32;20082;-78
2022/10/04 12:18:26;;;;;;;0.60;0.60;;;18.60;99.90;;;;;;4380452;32;20279;-78
2022/10/04 12:21:00;;;;;;;0.30;0.30;;;19.10;99.90;;;;;;4374734;32;20105;-77
2022/10/04 12:23:47;;;;;;;1.10;0.52;;;19.70;99.90;;;;;;4382877;32;20329;-77
2022/10/04 12:26:31;;;;;;;0.30;0.30;;;20.00;99.90;;;;;;4369032;32;20218;-77
2022/10/04 12:29:37;;;;;;;0.30;0.30;;;20.20;99.90;;;;;;4369561;32;20154;-77
2022/10/04 12:32:10;;;;;;;0.43;0.43;;;20.20;99.90;;;;;;4350736;32;20652;-77
2022/10/04 12:34:56;;;;;;;0.55;0.55;;;20.00;99.90;;;;;;4376626;32;20315;-76
2022/10/04 12:37:34;;;;;;;0.60;0.37;;;19.80;99.90;;;;;;4395511;32;20093;-77
2022/10/04 12:40:12;;;;;;;2.80;1.65;;;19.60;99.90;;;;;;4398608;32;20082;-77
2022/10/04 12:43:08;;;;;;;0.50;0.50;;;19.30;99.90;;;;;;4387789;32;20215;-77
2022/10/04 12:46:05;;;;;;;0.60;0.60;;;19.00;99.90;;;;;;4391522;32;20098;-76
2022/10/04 12:48:56;;;;;;;0.60;0.60;;;18.70;99.90;;;;;;4369426;32;20102;-77
2022/10/04 12:51:31;;;;;;;0.52;0.52;;;18.60;99.90;;;;;;4376986;32;20232;-76
2022/10/04 12:54:19;;;;;;;0.47;0.47;;;18.50;99.90;;;;;;4395749;32;20082;-77
2022/10/04 12:57:06;;;;;;;1.00;0.65;;;18.40;99.90;;;;;;4387147;32;20090;-77
2022/10/04 12:59:58;;;;;;;0.40;0.40;;;18.30;99.90;;;;;;4382468;32;20210;-77
2022/10/04 13:02:52;;;;;;;0.40;0.40;;;18.30;99.90;;;;;;4378299;32;20072;-77
2022/10/04 13:05:29;;;;;;;2.42;1.12;;;18.10;99.90;;;;;;4370521;32;20094;-76
2022/10/04 13:08:36;;;;;;;0.40;0.40;;;17.90;99.90;;;;;;4396388;32;20228;-77
2022/10/04 13:11:13;;;;;;;1.77;1.02;;;17.80;99.90;;;;;;4382261;32;20294;-76
2022/10/04 13:14:18;;;;;;;0.45;0.45;;;17.90;99.90;;;;;;4397269;32;20050;-76
2022/10/04 13:16:51;;;;;;;0.50;0.50;;;18.00;99.90;;;;;;4369491;32;20089;-78
2022/10/04 13:19:57;;;;;;;0.52;0.52;;;18.10;99.90;;;;;;4386300;32;20087;-76
2022/10/04 13:22:35;;;;;;;0.32;0.32;;;18.20;99.90;;;;;;4382080;32;20272;-77
2022/10/04 13:25:25;;;;;;;0.32;0.32;;;18.30;99.90;;;;;;4397186;32;20272;-76
2022/10/04 13:28:01;;;;;;;0.30;0.30;;;18.40;99.90;;;;;;4384876;32;20105;-77
2022/10/04 13:30:37;;;;;;;0.30;0.30;;;18.50;99.90;;;;;;4390320;32;20409;-76
2022/10/04 13:33:27;;;;;;;2.90;1.60;;;18.60;99.90;;;;;;4392082;32;20242;-77
2022/10/04 13:36:15;;;;;;;;;;;18.80;99.90;;;;;;4375368;32;20325;-77
2022/10/04 13:39:08;;;;;;;0.85;0.70;;;18.80;99.90;;;;;;4396193;32;19950;-76
2022/10/04 13:41:50;;;;;;;0.40;0.40;;;18.80;99.90;;;;;;4388325;32;20130;-77
2022/10/04 13:44:40;;;;;;;0.30;0.30;;;19.00;99.90;;;;;;4399733;32;20071;-79
2022/10/04 13:47:33;;;;;;;2.33;0.98;;;19.30;99.90;;;;;;4389203;32;20094;-77
2022/10/04 13:50:02;;;;;;;0.30;0.30;;;19.60;99.90;;;;;;4387050;32;20086;-77
2022/10/04 13:56:38;;;;;;;0.50;0.50;;;19.40;99.90;;;;;;4381559;32;20062;-79
2022/10/04 13:58:59;;;;;;;2.35;0.60;;;19.10;99.90;;;;;;4379339;32;20086;-77
2022/10/04 14:02:03;;;;;;;0.40;0.40;;;19.00;99.90;;;;;;4376148;32;20110;-76
2022/10/04 14:05:00;;;;;;;0.40;0.40;;;19.00;99.90;;;;;;4360486;32;20095;-78